createdAt,value
2023-03-24T00:04:53.626Z,11.85
2023-03-24T00:10:01.893Z,11.83
2023-03-24T00:15:13.200Z,11.80
2023-03-24T00:20:23.022Z,11.81
2023-03-24T00:25:36.541Z,11.83
2023-03-24T00:30:51.947Z,11.83
2023-03-24T00:35:59.282Z,11.84
2023-03-24T00:46:11.642Z,11.80
2023-03-24T00:51:18.964Z,11.82
2023-03-24T00:56:29.579Z,11.86
2023-03-24T01:01:39.827Z,11.83
2023-03-24T01:06:49.944Z,11.79
2023-03-24T01:11:57.775Z,11.80
2023-03-24T01:17:06.831Z,11.78
2023-03-24T01:22:14.446Z,11.71
2023-03-24T01:27:21.847Z,11.67
2023-03-24T01:32:29.417Z,11.64
2023-03-24T01:37:37.387Z,11.62
2023-03-24T01:42:44.888Z,11.58
2023-03-24T01:47:53.207Z,11.51
2023-03-24T01:53:02.271Z,11.43
2023-03-24T01:58:10.400Z,11.33
2023-03-24T02:03:23.035Z,11.29
2023-03-24T02:08:36.503Z,11.28
2023-03-24T02:13:43.786Z,11.33
2023-03-24T02:19:02.264Z,11.37
2023-03-24T02:24:43.432Z,11.40
2023-03-24T02:30:25.202Z,11.41
2023-03-24T02:35:54.388Z,11.39
2023-03-24T02:41:05.352Z,11.38
2023-03-24T02:46:22.494Z,11.32
2023-03-24T02:51:36.930Z,11.26
2023-03-24T02:56:49.351Z,11.17
2023-03-24T03:02:03.308Z,11.13
2023-03-24T03:07:17.130Z,11.12
2023-03-24T03:12:27.906Z,11.14
2023-03-24T03:17:40.228Z,11.13
2023-03-24T03:22:52.119Z,11.15
2023-03-24T03:28:03.902Z,11.15
2023-03-24T03:33:18.512Z,11.09
2023-03-24T03:38:33.738Z,11.07
2023-03-24T03:43:41.476Z,11.02
2023-03-24T03:48:49.814Z,10.98
2023-03-24T03:54:01.900Z,10.96
2023-03-24T03:59:11.905Z,10.98
2023-03-24T04:04:41.060Z,11.03
2023-03-24T04:10:06.753Z,11.04
2023-03-24T04:15:31.980Z,11.04
2023-03-24T04:20:48.412Z,11.01
2023-03-24T04:26:07.531Z,10.97
2023-03-24T04:31:23.937Z,10.91
2023-03-24T04:36:42.725Z,10.87
2023-03-24T04:41:50.853Z,10.91
2023-03-24T04:47:03.615Z,10.90
2023-03-24T04:52:11.093Z,10.86
2023-03-24T04:57:19.021Z,10.80
2023-03-24T05:02:27.564Z,10.78
2023-03-24T05:07:35.150Z,10.82
2023-03-24T05:12:42.657Z,10.85
2023-03-24T05:17:50.208Z,10.80
2023-03-24T05:22:58.209Z,10.82
2023-03-24T05:28:07.442Z,10.86
2023-03-24T05:35:59.038Z,10.90
2023-03-24T05:41:07.451Z,10.85
2023-03-24T05:46:14.862Z,10.88
2023-03-24T05:51:22.788Z,10.86
2023-03-24T05:56:31.766Z,10.88
2023-03-24T06:01:39.958Z,10.89
2023-03-24T06:06:47.514Z,10.94
2023-03-24T06:11:55.025Z,11.00
2023-03-24T06:17:02.413Z,11.07
2023-03-24T06:22:09.933Z,11.16
2023-03-24T06:27:19.067Z,11.20
2023-03-24T06:32:27.337Z,11.29
2023-03-24T06:37:34.782Z,11.35
2023-03-24T06:42:42.311Z,11.41
2023-03-24T06:47:49.982Z,11.52
2023-03-24T06:52:57.447Z,11.64
2023-03-24T06:58:05.085Z,11.80
2023-03-24T07:03:12.743Z,11.96
2023-03-24T07:08:36.708Z,12.12
2023-03-24T07:13:46.100Z,12.28
2023-03-24T07:18:53.537Z,12.48
2023-03-24T07:24:03.271Z,12.66
2023-03-24T07:29:11.237Z,12.87
2023-03-24T07:34:18.878Z,13.12
2023-03-24T07:39:26.713Z,13.37
2023-03-24T07:44:34.330Z,13.58
2023-03-24T07:49:41.822Z,13.77
2023-03-24T07:54:49.344Z,13.94
2023-03-24T07:59:56.960Z,14.10
2023-03-24T08:05:06.492Z,14.27
2023-03-24T08:10:16.772Z,14.43
2023-03-24T08:15:24.274Z,14.56
2023-03-24T08:20:31.695Z,14.72
2023-03-24T08:25:39.717Z,14.85
2023-03-24T08:30:48.274Z,15.00
2023-03-24T08:35:58.042Z,15.15
2023-03-24T08:41:08.831Z,15.32
2023-03-24T08:46:16.982Z,15.52
2023-03-24T08:51:25.130Z,15.71
2023-03-24T08:56:33.354Z,15.90
2023-03-24T09:01:41.603Z,16.05
2023-03-24T09:06:50.381Z,16.19
2023-03-24T09:11:58.631Z,16.37
2023-03-24T09:17:06.492Z,16.53
2023-03-24T09:22:14.479Z,16.71
2023-03-24T09:27:23.865Z,16.87
2023-03-24T09:32:32.147Z,17.05
2023-03-24T09:46:16.581Z,17.66
2023-03-24T09:51:26.599Z,17.84
2023-03-24T09:56:38.004Z,18.00
2023-03-24T10:01:45.696Z,18.17
2023-03-24T10:06:58.775Z,18.38
2023-03-24T10:12:19.102Z,18.61
2023-03-24T10:17:38.517Z,18.86
2023-03-24T10:22:56.041Z,19.11
2023-03-24T10:28:07.450Z,19.31
2023-03-24T10:33:15.875Z,19.48
2023-03-24T10:44:03.883Z,19.74
2023-03-24T10:49:21.638Z,19.86
2023-03-24T10:54:30.641Z,20.03
2023-03-24T10:59:47.818Z,20.15
2023-03-24T11:05:01.457Z,20.21
2023-03-24T11:10:17.484Z,20.29
2023-03-24T11:15:29.505Z,20.41
2023-03-24T11:20:39.246Z,20.48
2023-03-24T11:26:03.070Z,20.54
2023-03-24T11:31:19.433Z,20.66
2023-03-24T11:36:53.382Z,20.71
2023-03-24T11:42:15.171Z,20.72
2023-03-24T11:47:29.279Z,20.72
2023-03-24T11:52:40.834Z,20.80
2023-03-24T11:57:58.359Z,20.81
2023-03-24T12:03:45.079Z,20.81
2023-03-24T12:08:57.921Z,20.83
2023-03-24T12:21:23.523Z,21.04
2023-03-24T12:26:32.764Z,21.03
2023-03-24T12:32:10.014Z,21.01
2023-03-24T12:37:26.578Z,20.95
2023-03-24T12:42:41.165Z,20.92
2023-03-24T12:48:16.277Z,20.91
2023-03-24T12:53:53.949Z,20.89
2023-03-24T12:59:02.866Z,20.83
2023-03-24T13:04:16.964Z,20.81
2023-03-24T13:09:35.755Z,20.77
2023-03-24T13:14:54.071Z,20.72
2023-03-24T13:20:06.802Z,20.68
2023-03-24T13:25:26.925Z,20.65
2023-03-24T13:30:41.735Z,20.59
2023-03-24T13:36:14.826Z,20.50
2023-03-24T13:41:27.371Z,20.44
2023-03-24T13:46:37.863Z,20.37
2023-03-24T13:51:48.458Z,20.30
2023-03-24T13:57:05.901Z,20.26
2023-03-24T14:02:47.254Z,20.19
2023-03-24T14:08:11.102Z,20.14
2023-03-24T14:13:38.233Z,20.08
2023-03-24T14:18:46.326Z,19.95
2023-03-24T14:23:56.842Z,19.87
2023-03-24T14:29:06.403Z,19.80
2023-03-24T14:34:20.532Z,19.68
2023-03-24T14:39:35.892Z,19.55
2023-03-24T14:45:00.502Z,19.47
2023-03-24T14:50:20.474Z,19.34
2023-03-24T14:55:29.384Z,19.23
2023-03-24T15:00:49.385Z,19.17
2023-03-24T15:06:16.273Z,19.12
2023-03-24T15:11:27.437Z,19.09
2023-03-24T15:16:37.792Z,19.05
2023-03-24T15:21:50.485Z,19.02
2023-03-24T15:27:16.016Z,18.97
2023-03-24T15:32:25.330Z,18.93
2023-03-24T15:37:40.594Z,18.90
2023-03-24T15:46:24.610Z,18.85
2023-03-24T15:51:50.332Z,18.77
2023-03-24T15:57:16.834Z,18.70
2023-03-24T16:02:33.300Z,18.64
2023-03-24T16:07:43.513Z,18.57
2023-03-24T16:12:50.927Z,18.48
2023-03-24T16:17:58.323Z,18.41
2023-03-24T16:23:06.024Z,18.33
2023-03-24T16:28:17.380Z,18.25
2023-03-24T16:33:24.937Z,18.17
2023-03-24T16:38:33.576Z,18.07
2023-03-24T16:43:40.949Z,17.99
2023-03-24T16:48:49.881Z,17.93
2023-03-24T16:53:57.264Z,17.89
2023-03-24T16:59:05.551Z,17.85
2023-03-24T17:04:16.460Z,17.84
2023-03-24T17:09:24.405Z,17.82
2023-03-24T17:14:32.630Z,17.76
2023-03-24T17:19:42.267Z,17.59
2023-03-24T17:24:51.402Z,17.43
2023-03-24T17:29:58.898Z,17.26
2023-03-24T17:35:09.614Z,17.13
2023-03-24T17:40:19.175Z,17.04
2023-03-24T17:45:26.734Z,16.97
2023-03-24T17:50:34.418Z,16.91
2023-03-24T17:55:42.459Z,16.85
2023-03-24T18:00:51.372Z,16.67
2023-03-24T18:06:06.171Z,16.47
2023-03-24T18:11:16.197Z,16.27
2023-03-24T18:16:25.475Z,16.13
2023-03-24T18:21:33.892Z,16.00
2023-03-24T18:26:41.876Z,15.90
2023-03-24T18:31:50.254Z,15.81
2023-03-24T18:36:59.014Z,15.70
2023-03-24T18:42:07.283Z,15.54
2023-03-24T18:47:14.778Z,15.35
2023-03-24T18:52:22.395Z,15.20
2023-03-24T18:57:29.835Z,15.07
2023-03-24T19:02:37.232Z,14.95
2023-03-24T19:07:47.293Z,14.82
2023-03-24T19:12:55.889Z,14.68
2023-03-24T19:18:03.831Z,14.58
2023-03-24T19:23:12.125Z,14.48
2023-03-24T19:28:19.514Z,14.38
2023-03-24T19:33:27.077Z,14.28
2023-03-24T19:38:35.341Z,14.22
2023-03-24T19:43:42.776Z,14.19
2023-03-24T19:48:50.554Z,14.14
2023-03-24T19:53:57.882Z,14.04
2023-03-24T19:59:06.376Z,13.94
2023-03-24T20:04:14.195Z,13.89
2023-03-24T20:09:22.034Z,13.85
2023-03-24T20:14:31.866Z,13.79
2023-03-24T20:19:40.134Z,13.74
2023-03-24T20:24:49.074Z,13.71
2023-03-24T20:29:58.023Z,13.70
2023-03-24T20:35:06.315Z,13.66
2023-03-24T20:40:14.866Z,13.65
2023-03-24T20:45:24.199Z,13.66
2023-03-24T20:50:32.025Z,13.64
2023-03-24T20:55:39.798Z,13.68
2023-03-24T21:00:52.276Z,13.72
2023-03-24T21:06:00.361Z,13.75
2023-03-24T21:11:08.200Z,13.76
2023-03-24T21:16:16.936Z,13.76
2023-03-24T21:21:24.649Z,13.75
2023-03-24T21:29:31.903Z,13.69
2023-03-24T21:34:36.076Z,13.60
2023-03-24T21:39:40.483Z,13.53
2023-03-24T21:44:45.609Z,13.45
2023-03-24T21:49:52.617Z,13.38
2023-03-24T21:54:57.937Z,13.29
2023-03-24T22:00:09.475Z,13.22
2023-03-24T22:05:14.725Z,13.10
2023-03-24T22:10:22.622Z,13.00
2023-03-24T22:15:27.048Z,12.88
2023-03-24T22:20:33.012Z,12.82
2023-03-24T22:25:37.436Z,12.78
2023-03-24T22:30:42.352Z,12.67
2023-03-24T22:35:46.567Z,12.60
2023-03-24T22:40:50.634Z,12.51
2023-03-24T22:45:55.268Z,12.46
2023-03-24T22:50:59.597Z,12.45
2023-03-24T22:56:05.643Z,12.41
2023-03-24T23:01:10.128Z,12.28
2023-03-24T23:06:15.562Z,12.13
2023-03-24T23:11:19.914Z,12.00
2023-03-24T23:16:24.222Z,11.83
2023-03-24T23:21:29.306Z,11.70
2023-03-24T23:36:39.531Z,11.38
2023-03-24T23:41:47.066Z,11.31
2023-03-24T23:46:54.912Z,11.32
2023-03-24T23:52:02.352Z,11.25
2023-03-24T23:57:09.955Z,11.17
